sensor_id;sensor_type;location;lat;lon;timestamp;P1;durP1;ratioP1;P2;durP2;ratioP2
65279;SDS011;51878;55.748;48.742;2023-03-01T00:04:39;4.07;;;3.13;;
65279;SDS011;51878;55.748;48.742;2023-03-01T00:09:41;3.35;;;2.42;;
65279;SDS011;51878;55.748;48.742;2023-03-01T00:14:43;3.90;;;2.42;;
65279;SDS011;51878;55.748;48.742;2023-03-01T00:19:46;4.93;;;2.90;;
65279;SDS011;51878;55.748;48.742;2023-03-01T00:24:48;6.40;;;2.97;;
65279;SDS011;51878;55.748;48.742;2023-03-01T00:29:53;5.93;;;2.60;;
65279;SDS011;51878;55.748;48.742;2023-03-01T00:34:55;6.13;;;2.00;;
65279;SDS011;51878;55.748;48.742;2023-03-01T00:39:57;4.50;;;2.83;;
65279;SDS011;51878;55.748;48.742;2023-03-01T00:45:00;4.60;;;2.50;;
65279;SDS011;51878;55.748;48.742;2023-03-01T00:50:03;3.60;;;1.83;;
65279;SDS011;51878;55.748;48.742;2023-03-01T00:55:06;3.95;;;2.30;;
65279;SDS011;51878;55.748;48.742;2023-03-01T01:00:09;3.05;;;2.33;;
65279;SDS011;51878;55.748;48.742;2023-03-01T01:05:13;3.75;;;2.38;;
65279;SDS011;51878;55.748;48.742;2023-03-01T01:10:15;2.80;;;1.80;;
65279;SDS011;51878;55.748;48.742;2023-03-01T01:15:18;2.53;;;1.60;;
65279;SDS011;51878;55.748;48.742;2023-03-01T01:20:20;2.67;;;2.05;;
65279;SDS011;51878;55.748;48.742;2023-03-01T01:25:22;3.58;;;1.58;;
65279;SDS011;51878;55.748;48.742;2023-03-01T01:30:26;3.28;;;1.83;;
65279;SDS011;51878;55.748;48.742;2023-03-01T01:35:29;3.45;;;1.67;;
65279;SDS011;51878;55.748;48.742;2023-03-01T01:40:31;2.90;;;1.83;;
65279;SDS011;51878;55.748;48.742;2023-03-01T01:45:34;3.47;;;1.98;;
65279;SDS011;51878;55.748;48.742;2023-03-01T01:50:38;4.82;;;2.20;;
65279;SDS011;51878;55.748;48.742;2023-03-01T01:55:42;2.65;;;1.80;;
65279;SDS011;51878;55.748;48.742;2023-03-01T02:00:49;3.90;;;2.00;;
65279;SDS011;51878;55.748;48.742;2023-03-01T02:11:05;2.85;;;1.75;;
65279;SDS011;51878;55.748;48.742;2023-03-01T02:16:10;2.63;;;1.85;;
65279;SDS011;51878;55.748;48.742;2023-03-01T02:21:28;4.13;;;2.15;;
65279;SDS011;51878;55.748;48.742;2023-03-01T02:26:45;2.33;;;1.85;;
65279;SDS011;51878;55.748;48.742;2023-03-01T02:31:50;2.70;;;1.80;;
65279;SDS011;51878;55.748;48.742;2023-03-01T02:36:59;2.75;;;1.85;;
65279;SDS011;51878;55.748;48.742;2023-03-01T02:42:06;1.65;;;1.55;;
65279;SDS011;51878;55.748;48.742;2023-03-01T02:47:08;2.67;;;2.10;;
65279;SDS011;51878;55.748;48.742;2023-03-01T02:57:35;2.95;;;1.50;;
65279;SDS011;51878;55.748;48.742;2023-03-01T03:02:39;4.00;;;1.40;;
65279;SDS011;51878;55.748;48.742;2023-03-01T03:07:42;2.25;;;1.50;;
65279;SDS011;51878;55.748;48.742;2023-03-01T03:12:50;2.00;;;1.65;;
65279;SDS011;51878;55.748;48.742;2023-03-01T03:17:56;2.23;;;1.60;;
65279;SDS011;51878;55.748;48.742;2023-03-01T03:23:00;2.65;;;2.00;;
65279;SDS011;51878;55.748;48.742;2023-03-01T03:28:03;4.35;;;1.90;;
65279;SDS011;51878;55.748;48.742;2023-03-01T03:33:11;2.67;;;1.25;;
65279;SDS011;51878;55.748;48.742;2023-03-01T03:38:15;2.50;;;1.55;;
65279;SDS011;51878;55.748;48.742;2023-03-01T03:43:20;2.00;;;1.70;;
65279;SDS011;51878;55.748;48.742;2023-03-01T03:48:24;2.95;;;2.00;;
65279;SDS011;51878;55.748;48.742;2023-03-01T03:53:28;2.22;;;1.90;;
65279;SDS011;51878;55.748;48.742;2023-03-01T03:58:30;1.50;;;1.40;;
65279;SDS011;51878;55.748;48.742;2023-03-01T04:03:33;3.17;;;1.58;;
65279;SDS011;51878;55.748;48.742;2023-03-01T04:08:36;3.75;;;1.60;;
65279;SDS011;51878;55.748;48.742;2023-03-01T04:13:38;2.03;;;1.40;;
65279;SDS011;51878;55.748;48.742;2023-03-01T04:18:43;2.47;;;1.60;;
65279;SDS011;51878;55.748;48.742;2023-03-01T04:23:46;1.73;;;1.13;;
65279;SDS011;51878;55.748;48.742;2023-03-01T04:28:48;2.72;;;1.65;;
65279;SDS011;51878;55.748;48.742;2023-03-01T04:33:52;2.60;;;1.60;;
65279;SDS011;51878;55.748;48.742;2023-03-01T04:38:56;2.58;;;1.38;;
65279;SDS011;51878;55.748;48.742;2023-03-01T04:43:59;3.47;;;1.52;;
65279;SDS011;51878;55.748;48.742;2023-03-01T04:49:02;5.60;;;1.85;;
65279;SDS011;51878;55.748;48.742;2023-03-01T04:54:05;3.60;;;1.83;;
65279;SDS011;51878;55.748;48.742;2023-03-01T04:59:10;5.07;;;1.98;;
65279;SDS011;51878;55.748;48.742;2023-03-01T05:04:14;5.15;;;2.63;;
65279;SDS011;51878;55.748;48.742;2023-03-01T05:09:16;10.23;;;3.33;;
65279;SDS011;51878;55.748;48.742;2023-03-01T05:14:18;5.25;;;2.42;;
65279;SDS011;51878;55.748;48.742;2023-03-01T05:19:22;7.25;;;3.08;;
65279;SDS011;51878;55.748;48.742;2023-03-01T05:24:24;5.03;;;2.80;;
65279;SDS011;51878;55.748;48.742;2023-03-01T05:29:27;8.00;;;2.40;;
65279;SDS011;51878;55.748;48.742;2023-03-01T05:34:34;7.38;;;2.17;;
65279;SDS011;51878;55.748;48.742;2023-03-01T05:39:37;6.90;;;3.03;;
65279;SDS011;51878;55.748;48.742;2023-03-01T05:44:39;9.35;;;2.72;;
65279;SDS011;51878;55.748;48.742;2023-03-01T05:49:42;2.25;;;1.55;;
65279;SDS011;51878;55.748;48.742;2023-03-01T05:54:44;3.33;;;1.98;;
65279;SDS011;51878;55.748;48.742;2023-03-01T05:59:46;7.60;;;2.60;;
65279;SDS011;51878;55.748;48.742;2023-03-01T06:04:48;2.58;;;1.85;;
65279;SDS011;51878;55.748;48.742;2023-03-01T06:09:50;2.63;;;1.30;;
65279;SDS011;51878;55.748;48.742;2023-03-01T06:14:52;1.20;;;1.02;;
65279;SDS011;51878;55.748;48.742;2023-03-01T06:19:54;1.30;;;0.82;;
65279;SDS011;51878;55.748;48.742;2023-03-01T06:24:56;2.35;;;1.20;;
65279;SDS011;51878;55.748;48.742;2023-03-01T06:29:58;0.88;;;0.88;;
65279;SDS011;51878;55.748;48.742;2023-03-01T06:35:00;0.80;;;0.70;;
65279;SDS011;51878;55.748;48.742;2023-03-01T06:40:04;2.45;;;1.25;;
65279;SDS011;51878;55.748;48.742;2023-03-01T06:45:10;3.28;;;1.50;;
65279;SDS011;51878;55.748;48.742;2023-03-01T06:50:13;1.55;;;0.75;;
65279;SDS011;51878;55.748;48.742;2023-03-01T06:55:16;1.17;;;1.02;;
65279;SDS011;51878;55.748;48.742;2023-03-01T07:00:19;1.42;;;1.17;;
65279;SDS011;51878;55.748;48.742;2023-03-01T07:05:21;2.05;;;1.10;;
65279;SDS011;51878;55.748;48.742;2023-03-01T07:10:24;2.78;;;1.42;;
65279;SDS011;51878;55.748;48.742;2023-03-01T07:15:26;1.00;;;0.90;;
65279;SDS011;51878;55.748;48.742;2023-03-01T07:20:30;1.08;;;0.95;;
65279;SDS011;51878;55.748;48.742;2023-03-01T07:25:32;2.47;;;1.00;;
65279;SDS011;51878;55.748;48.742;2023-03-01T07:30:34;2.15;;;1.15;;
65279;SDS011;51878;55.748;48.742;2023-03-01T07:35:38;5.50;;;1.50;;
65279;SDS011;51878;55.748;48.742;2023-03-01T07:40:40;6.25;;;1.30;;
65279;SDS011;51878;55.748;48.742;2023-03-01T07:45:42;1.77;;;1.10;;
65279;SDS011;51878;55.748;48.742;2023-03-01T07:50:47;1.90;;;1.05;;
65279;SDS011;51878;55.748;48.742;2023-03-01T07:55:49;1.63;;;1.10;;
65279;SDS011;51878;55.748;48.742;2023-03-01T08:00:53;0.98;;;0.82;;
65279;SDS011;51878;55.748;48.742;2023-03-01T08:05:55;3.85;;;1.13;;
65279;SDS011;51878;55.748;48.742;2023-03-01T08:11:00;2.42;;;0.90;;
65279;SDS011;51878;55.748;48.742;2023-03-01T08:16:05;3.10;;;0.93;;
65279;SDS011;51878;55.748;48.742;2023-03-01T08:21:11;6.43;;;1.02;;
65279;SDS011;51878;55.748;48.742;2023-03-01T08:26:17;0.70;;;0.68;;
65279;SDS011;51878;55.748;48.742;2023-03-01T08:31:32;3.97;;;1.35;;
65279;SDS011;51878;55.748;48.742;2023-03-01T08:36:39;3.35;;;1.10;;
65279;SDS011;51878;55.748;48.742;2023-03-01T08:41:44;1.60;;;1.00;;
65279;SDS011;51878;55.748;48.742;2023-03-01T08:46:48;3.38;;;1.63;;
65279;SDS011;51878;55.748;48.742;2023-03-01T08:51:52;2.92;;;1.00;;
65279;SDS011;51878;55.748;48.742;2023-03-01T08:56:55;7.28;;;2.08;;
65279;SDS011;51878;55.748;48.742;2023-03-01T09:02:00;2.47;;;1.30;;
65279;SDS011;51878;55.748;48.742;2023-03-01T09:07:02;2.45;;;1.50;;
65279;SDS011;51878;55.748;48.742;2023-03-01T09:12:04;2.33;;;1.25;;
65279;SDS011;51878;55.748;48.742;2023-03-01T09:17:07;1.60;;;1.23;;
65279;SDS011;51878;55.748;48.742;2023-03-01T09:22:09;2.95;;;1.65;;
65279;SDS011;51878;55.748;48.742;2023-03-01T09:27:11;3.17;;;0.70;;
65279;SDS011;51878;55.748;48.742;2023-03-01T09:32:14;1.95;;;1.02;;
65279;SDS011;51878;55.748;48.742;2023-03-01T09:37:16;2.75;;;1.10;;
65279;SDS011;51878;55.748;48.742;2023-03-01T09:42:18;1.73;;;0.90;;
65279;SDS011;51878;55.748;48.742;2023-03-01T09:47:21;1.15;;;1.00;;
65279;SDS011;51878;55.748;48.742;2023-03-01T09:52:34;2.30;;;1.35;;
65279;SDS011;51878;55.748;48.742;2023-03-01T09:57:43;2.65;;;0.98;;
65279;SDS011;51878;55.748;48.742;2023-03-01T10:08:34;2.08;;;1.10;;
65279;SDS011;51878;55.748;48.742;2023-03-01T10:19:19;3.60;;;3.28;;
65279;SDS011;51878;55.748;48.742;2023-03-01T10:24:32;1.67;;;0.90;;
65279;SDS011;51878;55.748;48.742;2023-03-01T10:29:42;0.85;;;0.80;;
65279;SDS011;51878;55.748;48.742;2023-03-01T10:35:16;1.20;;;0.88;;
65279;SDS011;51878;55.748;48.742;2023-03-01T10:40:21;3.03;;;1.27;;
65279;SDS011;51878;55.748;48.742;2023-03-01T10:45:27;1.35;;;1.15;;
65279;SDS011;51878;55.748;48.742;2023-03-01T10:50:31;2.80;;;0.80;;
65279;SDS011;51878;55.748;48.742;2023-03-01T11:00:59;1.80;;;0.80;;
65279;SDS011;51878;55.748;48.742;2023-03-01T11:16:36;1.88;;;0.75;;
65279;SDS011;51878;55.748;48.742;2023-03-01T11:26:54;2.08;;;1.10;;
65279;SDS011;51878;55.748;48.742;2023-03-01T11:31:57;0.70;;;0.70;;
65279;SDS011;51878;55.748;48.742;2023-03-01T11:37:03;3.83;;;0.95;;
65279;SDS011;51878;55.748;48.742;2023-03-01T12:35:54;1.17;;;1.02;;
65279;SDS011;51878;55.748;48.742;2023-03-01T12:41:06;4.18;;;1.05;;
65279;SDS011;51878;55.748;48.742;2023-03-01T12:51:37;0.82;;;0.82;;
65279;SDS011;51878;55.748;48.742;2023-03-01T12:56:41;1.05;;;0.80;;
65279;SDS011;51878;55.748;48.742;2023-03-01T13:01:49;1.17;;;0.88;;
65279;SDS011;51878;55.748;48.742;2023-03-01T13:17:57;1.60;;;0.85;;
65279;SDS011;51878;55.748;48.742;2023-03-01T13:23:28;2.83;;;0.90;;
65279;SDS011;51878;55.748;48.742;2023-03-01T13:33:45;0.65;;;0.65;;
65279;SDS011;51878;55.748;48.742;2023-03-01T13:38:56;1.02;;;0.77;;
65279;SDS011;51878;55.748;48.742;2023-03-01T13:44:00;1.70;;;0.98;;
65279;SDS011;51878;55.748;48.742;2023-03-01T13:49:02;0.60;;;0.60;;
65279;SDS011;51878;55.748;48.742;2023-03-01T13:54:04;1.58;;;0.65;;
65279;SDS011;51878;55.748;48.742;2023-03-01T13:59:17;1.23;;;0.77;;
65279;SDS011;51878;55.748;48.742;2023-03-01T14:04:22;0.93;;;0.70;;
65279;SDS011;51878;55.748;48.742;2023-03-01T14:09:28;0.60;;;0.60;;
65279;SDS011;51878;55.748;48.742;2023-03-01T14:19:46;1.70;;;1.15;;
65279;SDS011;51878;55.748;48.742;2023-03-01T14:24:59;1.27;;;1.00;;
65279;SDS011;51878;55.748;48.742;2023-03-01T14:35:52;0.90;;;0.90;;
65279;SDS011;51878;55.748;48.742;2023-03-01T14:40:59;0.80;;;0.80;;
65279;SDS011;51878;55.748;48.742;2023-03-01T14:46:16;1.73;;;1.43;;
65279;SDS011;51878;55.748;48.742;2023-03-01T14:51:22;1.23;;;0.93;;
65279;SDS011;51878;55.748;48.742;2023-03-01T14:56:24;2.60;;;1.05;;
65279;SDS011;51878;55.748;48.742;2023-03-01T15:01:26;1.92;;;1.00;;
65279;SDS011;51878;55.748;48.742;2023-03-01T15:06:29;0.80;;;0.80;;
65279;SDS011;51878;55.748;48.742;2023-03-01T15:11:32;1.20;;;0.90;;
65279;SDS011;51878;55.748;48.742;2023-03-01T15:16:35;1.45;;;0.85;;
65279;SDS011;51878;55.748;48.742;2023-03-01T15:21:43;1.20;;;0.98;;
65279;SDS011;51878;55.748;48.742;2023-03-01T15:37:46;1.75;;;1.00;;
65279;SDS011;51878;55.748;48.742;2023-03-01T15:42:50;4.57;;;0.82;;
65279;SDS011;51878;55.748;48.742;2023-03-01T15:47:56;2.15;;;1.02;;
65279;SDS011;51878;55.748;48.742;2023-03-01T15:53:07;1.52;;;1.10;;
65279;SDS011;51878;55.748;48.742;2023-03-01T15:58:14;3.40;;;1.38;;
65279;SDS011;51878;55.748;48.742;2023-03-01T16:03:18;1.80;;;1.10;;
65279;SDS011;51878;55.748;48.742;2023-03-01T16:08:22;7.07;;;1.30;;
65279;SDS011;51878;55.748;48.742;2023-03-01T16:13:24;1.58;;;1.10;;
65279;SDS011;51878;55.748;48.742;2023-03-01T16:18:29;1.08;;;1.00;;
65279;SDS011;51878;55.748;48.742;2023-03-01T16:23:31;3.92;;;0.98;;
65279;SDS011;51878;55.748;48.742;2023-03-01T16:28:33;2.20;;;0.93;;
65279;SDS011;51878;55.748;48.742;2023-03-01T16:33:35;1.33;;;0.90;;
65279;SDS011;51878;55.748;48.742;2023-03-01T16:38:38;3.25;;;1.60;;
65279;SDS011;51878;55.748;48.742;2023-03-01T16:43:40;3.60;;;1.27;;
65279;SDS011;51878;55.748;48.742;2023-03-01T16:48:43;1.10;;;1.00;;
65279;SDS011;51878;55.748;48.742;2023-03-01T16:53:46;0.80;;;0.80;;
65279;SDS011;51878;55.748;48.742;2023-03-01T16:58:48;1.98;;;1.15;;
65279;SDS011;51878;55.748;48.742;2023-03-01T17:03:50;1.42;;;1.10;;
65279;SDS011;51878;55.748;48.742;2023-03-01T17:08:52;0.95;;;0.85;;
65279;SDS011;51878;55.748;48.742;2023-03-01T17:13:55;1.98;;;0.90;;
65279;SDS011;51878;55.748;48.742;2023-03-01T17:18:57;0.60;;;0.60;;
65279;SDS011;51878;55.748;48.742;2023-03-01T17:23:59;1.20;;;0.90;;
65279;SDS011;51878;55.748;48.742;2023-03-01T17:29:01;4.03;;;1.40;;
65279;SDS011;51878;55.748;48.742;2023-03-01T17:34:06;0.70;;;0.70;;
65279;SDS011;51878;55.748;48.742;2023-03-01T17:39:11;0.82;;;0.82;;
65279;SDS011;51878;55.748;48.742;2023-03-01T17:44:19;2.15;;;0.90;;
65279;SDS011;51878;55.748;48.742;2023-03-01T17:49:21;0.95;;;0.95;;
65279;SDS011;51878;55.748;48.742;2023-03-01T17:54:23;0.68;;;0.60;;
65279;SDS011;51878;55.748;48.742;2023-03-01T17:59:27;3.13;;;1.20;;
65279;SDS011;51878;55.748;48.742;2023-03-01T18:04:34;0.95;;;0.70;;
65279;SDS011;51878;55.748;48.742;2023-03-01T18:09:36;1.00;;;0.75;;
65279;SDS011;51878;55.748;48.742;2023-03-01T18:14:38;1.85;;;0.90;;
65279;SDS011;51878;55.748;48.742;2023-03-01T18:19:40;2.13;;;1.00;;
65279;SDS011;51878;55.748;48.742;2023-03-01T18:24:46;0.85;;;0.85;;
65279;SDS011;51878;55.748;48.742;2023-03-01T18:29:48;1.80;;;0.73;;
65279;SDS011;51878;55.748;48.742;2023-03-01T18:34:53;1.27;;;1.00;;
65279;SDS011;51878;55.748;48.742;2023-03-01T18:39:55;4.32;;;1.00;;
65279;SDS011;51878;55.748;48.742;2023-03-01T18:44:57;1.73;;;1.20;;
65279;SDS011;51878;55.748;48.742;2023-03-01T18:49:59;1.10;;;0.65;;
65279;SDS011;51878;55.748;48.742;2023-03-01T18:55:04;1.27;;;1.02;;
65279;SDS011;51878;55.748;48.742;2023-03-01T19:00:08;0.50;;;0.50;;
65279;SDS011;51878;55.748;48.742;2023-03-01T19:05:11;2.65;;;0.80;;
65279;SDS011;51878;55.748;48.742;2023-03-01T19:10:16;2.85;;;1.17;;
65279;SDS011;51878;55.748;48.742;2023-03-01T19:15:19;2.33;;;0.98;;
65279;SDS011;51878;55.748;48.742;2023-03-01T19:20:21;2.88;;;1.17;;
65279;SDS011;51878;55.748;48.742;2023-03-01T19:25:23;1.85;;;0.80;;
65279;SDS011;51878;55.748;48.742;2023-03-01T19:30:25;3.10;;;1.40;;
65279;SDS011;51878;55.748;48.742;2023-03-01T19:35:28;1.58;;;1.20;;
65279;SDS011;51878;55.748;48.742;2023-03-01T19:40:30;1.83;;;1.55;;
65279;SDS011;51878;55.748;48.742;2023-03-01T19:45:32;1.13;;;1.00;;
65279;SDS011;51878;55.748;48.742;2023-03-01T19:50:34;2.05;;;1.30;;
65279;SDS011;51878;55.748;48.742;2023-03-01T19:55:38;7.55;;;1.67;;
65279;SDS011;51878;55.748;48.742;2023-03-01T20:00:43;3.42;;;1.73;;
65279;SDS011;51878;55.748;48.742;2023-03-01T20:05:47;0.95;;;0.93;;
65279;SDS011;51878;55.748;48.742;2023-03-01T20:10:49;1.33;;;1.17;;
65279;SDS011;51878;55.748;48.742;2023-03-01T20:15:54;0.70;;;0.70;;
65279;SDS011;51878;55.748;48.742;2023-03-01T20:20:57;0.73;;;0.73;;
65279;SDS011;51878;55.748;48.742;2023-03-01T20:26:04;1.23;;;0.85;;
65279;SDS011;51878;55.748;48.742;2023-03-01T20:31:09;1.48;;;1.08;;
65279;SDS011;51878;55.748;48.742;2023-03-01T20:36:12;1.38;;;1.10;;
65279;SDS011;51878;55.748;48.742;2023-03-01T20:41:15;1.67;;;1.02;;
65279;SDS011;51878;55.748;48.742;2023-03-01T20:46:17;1.67;;;1.42;;
65279;SDS011;51878;55.748;48.742;2023-03-01T20:51:20;3.80;;;1.10;;
65279;SDS011;51878;55.748;48.742;2023-03-01T20:56:22;2.00;;;1.05;;
65279;SDS011;51878;55.748;48.742;2023-03-01T21:01:24;0.95;;;0.80;;
65279;SDS011;51878;55.748;48.742;2023-03-01T21:06:28;1.15;;;0.90;;
65279;SDS011;51878;55.748;48.742;2023-03-01T21:11:30;0.70;;;0.70;;
65279;SDS011;51878;55.748;48.742;2023-03-01T21:16:32;1.15;;;1.05;;
65279;SDS011;51878;55.748;48.742;2023-03-01T21:21:36;2.30;;;1.17;;
65279;SDS011;51878;55.748;48.742;2023-03-01T21:26:38;1.58;;;1.02;;
65279;SDS011;51878;55.748;48.742;2023-03-01T21:31:40;2.53;;;0.90;;
65279;SDS011;51878;55.748;48.742;2023-03-01T21:36:42;1.95;;;1.23;;
65279;SDS011;51878;55.748;48.742;2023-03-01T21:41:44;2.13;;;1.25;;
65279;SDS011;51878;55.748;48.742;2023-03-01T21:46:47;1.45;;;1.00;;
65279;SDS011;51878;55.748;48.742;2023-03-01T21:51:49;1.17;;;1.08;;
65279;SDS011;51878;55.748;48.742;2023-03-01T21:56:51;1.55;;;0.95;;
65279;SDS011;51878;55.748;48.742;2023-03-01T22:01:53;1.60;;;1.25;;
65279;SDS011;51878;55.748;48.742;2023-03-01T22:06:55;1.83;;;1.13;;
65279;SDS011;51878;55.748;48.742;2023-03-01T22:11:57;5.25;;;2.17;;
65279;SDS011;51878;55.748;48.742;2023-03-01T22:17:03;2.17;;;1.05;;
65279;SDS011;51878;55.748;48.742;2023-03-01T22:22:05;1.27;;;1.10;;
65279;SDS011;51878;55.748;48.742;2023-03-01T22:27:07;2.47;;;1.23;;
65279;SDS011;51878;55.748;48.742;2023-03-01T22:32:09;3.50;;;1.10;;
65279;SDS011;51878;55.748;48.742;2023-03-01T22:37:12;2.35;;;1.10;;
65279;SDS011;51878;55.748;48.742;2023-03-01T22:42:15;0.98;;;0.82;;
65279;SDS011;51878;55.748;48.742;2023-03-01T22:47:17;0.88;;;0.88;;
65279;SDS011;51878;55.748;48.742;2023-03-01T22:52:19;1.50;;;1.20;;
65279;SDS011;51878;55.748;48.742;2023-03-01T22:57:21;2.85;;;1.40;;
65279;SDS011;51878;55.748;48.742;2023-03-01T23:02:24;1.40;;;1.17;;
65279;SDS011;51878;55.748;48.742;2023-03-01T23:07:26;7.30;;;1.52;;
65279;SDS011;51878;55.748;48.742;2023-03-01T23:12:28;2.55;;;1.67;;
65279;SDS011;51878;55.748;48.742;2023-03-01T23:17:30;0.90;;;0.90;;
65279;SDS011;51878;55.748;48.742;2023-03-01T23:22:33;0.85;;;0.85;;
65279;SDS011;51878;55.748;48.742;2023-03-01T23:27:35;1.10;;;0.93;;
65279;SDS011;51878;55.748;48.742;2023-03-01T23:32:38;1.02;;;1.02;;
65279;SDS011;51878;55.748;48.742;2023-03-01T23:37:41;0.80;;;0.80;;
65279;SDS011;51878;55.748;48.742;2023-03-01T23:42:45;2.95;;;1.48;;
65279;SDS011;51878;55.748;48.742;2023-03-01T23:47:47;3.00;;;1.23;;
65279;SDS011;51878;55.748;48.742;2023-03-01T23:52:49;2.13;;;1.70;;
65279;SDS011;51878;55.748;48.742;2023-03-01T23:57:51;1.20;;;1.10;;
